sensor_id;sensor_type;location;lat;lon;timestamp;pressure;altitude;pressure_sealevel;temperature;humidity
54736;BME280;40632;51.442;11.936;2022-10-16T00:02:03;100091.69;;;23.60;59.68
54736;BME280;40632;51.442;11.936;2022-10-16T00:04:29;100087.91;;;23.48;60.15
54736;BME280;40632;51.442;11.936;2022-10-16T00:06:55;100081.47;;;23.42;60.29
54736;BME280;40632;51.442;11.936;2022-10-16T00:09:20;100084.13;;;23.70;59.35
54736;BME280;40632;51.442;11.936;2022-10-16T00:11:46;100082.31;;;23.77;59.20
54736;BME280;40632;51.442;11.936;2022-10-16T00:14:14;100091.97;;;23.72;59.32
54736;BME280;40632;51.442;11.936;2022-10-16T00:16:41;100092.41;;;23.75;59.24
54736;BME280;40632;51.442;11.936;2022-10-16T00:19:07;100092.88;;;23.51;59.68
54736;BME280;40632;51.442;11.936;2022-10-16T00:21:33;100096.84;;;23.62;59.66
54736;BME280;40632;51.442;11.936;2022-10-16T00:24:00;100105.88;;;23.54;59.82
54736;BME280;40632;51.442;11.936;2022-10-16T00:26:27;100114.28;;;23.79;58.91
54736;BME280;40632;51.442;11.936;2022-10-16T00:28:53;100116.28;;;23.70;59.60
54736;BME280;40632;51.442;11.936;2022-10-16T00:31:22;100122.16;;;23.81;58.91
54736;BME280;40632;51.442;11.936;2022-10-16T00:33:49;100114.28;;;23.79;59.22
54736;BME280;40632;51.442;11.936;2022-10-16T00:36:17;100108.28;;;23.42;60.08
54736;BME280;40632;51.442;11.936;2022-10-16T00:38:43;100111.44;;;23.52;59.75
54736;BME280;40632;51.442;11.936;2022-10-16T00:41:11;100113.31;;;23.58;59.58
54736;BME280;40632;51.442;11.936;2022-10-16T00:43:39;100104.34;;;23.45;59.80
54736;BME280;40632;51.442;11.936;2022-10-16T00:46:11;100097.03;;;22.60;62.57
54736;BME280;40632;51.442;11.936;2022-10-16T00:48:42;100095.69;;;22.93;61.47
54736;BME280;40632;51.442;11.936;2022-10-16T00:51:09;100097.22;;;23.24;60.93
54736;BME280;40632;51.442;11.936;2022-10-16T00:53:35;100099.97;;;23.37;60.41
54736;BME280;40632;51.442;11.936;2022-10-16T00:56:02;100096.66;;;23.07;60.99
54736;BME280;40632;51.442;11.936;2022-10-16T00:58:28;100097.84;;;23.26;60.38
54736;BME280;40632;51.442;11.936;2022-10-16T01:00:54;100094.06;;;23.13;60.90
54736;BME280;40632;51.442;11.936;2022-10-16T01:03:25;100093.03;;;22.71;62.35
54736;BME280;40632;51.442;11.936;2022-10-16T01:06:00;100105.91;;;23.04;61.79
54736;BME280;40632;51.442;11.936;2022-10-16T01:08:35;100105.19;;;23.17;60.84
54736;BME280;40632;51.442;11.936;2022-10-16T01:11:09;100107.19;;;23.08;61.00
54736;BME280;40632;51.442;11.936;2022-10-16T01:13:41;100104.56;;;23.15;61.07
54736;BME280;40632;51.442;11.936;2022-10-16T01:16:13;100101.75;;;23.01;61.26
54736;BME280;40632;51.442;11.936;2022-10-16T01:18:45;100103.50;;;22.88;61.53
54736;BME280;40632;51.442;11.936;2022-10-16T01:21:18;100107.63;;;22.90;61.32
54736;BME280;40632;51.442;11.936;2022-10-16T01:23:53;100109.16;;;22.78;61.65
54736;BME280;40632;51.442;11.936;2022-10-16T01:26:36;100117.00;;;22.58;62.09
54736;BME280;40632;51.442;11.936;2022-10-16T01:29:08;100124.38;;;22.56;62.71
54736;BME280;40632;51.442;11.936;2022-10-16T01:31:37;100120.38;;;22.30;63.80
54736;BME280;40632;51.442;11.936;2022-10-16T01:34:07;100132.19;;;22.36;63.07
54736;BME280;40632;51.442;11.936;2022-10-16T01:36:39;100139.28;;;22.65;62.53
54736;BME280;40632;51.442;11.936;2022-10-16T01:39:09;100140.34;;;22.49;62.76
54736;BME280;40632;51.442;11.936;2022-10-16T01:41:39;100142.53;;;22.82;61.73
54736;BME280;40632;51.442;11.936;2022-10-16T01:44:11;100149.91;;;22.58;62.37
54736;BME280;40632;51.442;11.936;2022-10-16T01:46:41;100150.06;;;22.50;62.43
54736;BME280;40632;51.442;11.936;2022-10-16T01:49:09;100154.63;;;22.56;62.45
54736;BME280;40632;51.442;11.936;2022-10-16T01:51:36;100146.59;;;22.56;62.52
54736;BME280;40632;51.442;11.936;2022-10-16T01:54:04;100137.50;;;22.51;62.81
54736;BME280;40632;51.442;11.936;2022-10-16T01:56:33;100133.19;;;22.35;63.47
54736;BME280;40632;51.442;11.936;2022-10-16T01:59:02;100122.69;;;22.70;62.37
54736;BME280;40632;51.442;11.936;2022-10-16T02:01:34;100131.09;;;22.00;64.16
54736;BME280;40632;51.442;11.936;2022-10-16T02:04:06;100121.72;;;22.41;63.05
54736;BME280;40632;51.442;11.936;2022-10-16T02:06:33;100125.53;;;22.32;62.46
54736;BME280;40632;51.442;11.936;2022-10-16T02:08:59;100127.00;;;22.19;63.18
54736;BME280;40632;51.442;11.936;2022-10-16T02:11:25;100138.09;;;22.01;63.99
54736;BME280;40632;51.442;11.936;2022-10-16T02:13:53;100138.28;;;22.30;63.10
54736;BME280;40632;51.442;11.936;2022-10-16T02:16:20;100135.81;;;22.50;62.55
54736;BME280;40632;51.442;11.936;2022-10-16T02:18:48;100146.19;;;22.38;62.51
54736;BME280;40632;51.442;11.936;2022-10-16T02:21:19;100148.78;;;22.31;62.83
54736;BME280;40632;51.442;11.936;2022-10-16T02:23:51;100151.34;;;22.24;62.76
54736;BME280;40632;51.442;11.936;2022-10-16T02:26:27;100155.13;;;22.15;62.89
54736;BME280;40632;51.442;11.936;2022-10-16T02:28:58;100157.09;;;22.06;63.49
54736;BME280;40632;51.442;11.936;2022-10-16T02:31:28;100169.34;;;22.01;63.81
54736;BME280;40632;51.442;11.936;2022-10-16T02:34:00;100163.16;;;22.15;63.51
54736;BME280;40632;51.442;11.936;2022-10-16T02:36:27;100158.13;;;22.05;63.51
54736;BME280;40632;51.442;11.936;2022-10-16T02:38:53;100151.19;;;21.96;63.97
54736;BME280;40632;51.442;11.936;2022-10-16T02:41:20;100156.06;;;21.78;64.29
54736;BME280;40632;51.442;11.936;2022-10-16T02:43:46;100153.03;;;21.96;63.81
54736;BME280;40632;51.442;11.936;2022-10-16T02:46:11;100153.03;;;21.81;64.23
54736;BME280;40632;51.442;11.936;2022-10-16T02:48:37;100162.22;;;21.63;64.77
54736;BME280;40632;51.442;11.936;2022-10-16T02:51:06;100169.34;;;21.86;64.01
54736;BME280;40632;51.442;11.936;2022-10-16T02:53:31;100159.94;;;21.90;64.04
54736;BME280;40632;51.442;11.936;2022-10-16T02:55:57;100167.22;;;21.66;64.46
54736;BME280;40632;51.442;11.936;2022-10-16T02:58:22;100149.25;;;21.75;64.16
54736;BME280;40632;51.442;11.936;2022-10-16T03:00:48;100155.88;;;21.79;64.00
54736;BME280;40632;51.442;11.936;2022-10-16T03:03:14;100158.91;;;21.76;64.65
54736;BME280;40632;51.442;11.936;2022-10-16T03:05:39;100166.59;;;21.79;64.36
54736;BME280;40632;51.442;11.936;2022-10-16T03:08:07;100166.13;;;21.76;64.28
54736;BME280;40632;51.442;11.936;2022-10-16T03:10:33;100160.31;;;21.87;63.91
54736;BME280;40632;51.442;11.936;2022-10-16T03:12:58;100171.09;;;21.94;64.00
54736;BME280;40632;51.442;11.936;2022-10-16T03:15:24;100161.63;;;21.91;64.04
54736;BME280;40632;51.442;11.936;2022-10-16T03:17:50;100177.19;;;22.02;63.67
54736;BME280;40632;51.442;11.936;2022-10-16T03:20:15;100174.78;;;21.93;63.52
54736;BME280;40632;51.442;11.936;2022-10-16T03:22:41;100178.19;;;21.86;64.20
54736;BME280;40632;51.442;11.936;2022-10-16T03:25:09;100187.44;;;21.84;63.90
54736;BME280;40632;51.442;11.936;2022-10-16T03:27:35;100189.44;;;21.82;64.05
54736;BME280;40632;51.442;11.936;2022-10-16T03:30:00;100176.91;;;21.82;64.08
54736;BME280;40632;51.442;11.936;2022-10-16T03:32:26;100182.97;;;21.76;64.23
54736;BME280;40632;51.442;11.936;2022-10-16T03:34:51;100163.88;;;21.49;65.16
54736;BME280;40632;51.442;11.936;2022-10-16T03:37:17;100166.28;;;21.59;65.08
54736;BME280;40632;51.442;11.936;2022-10-16T03:39:43;100162.69;;;21.82;64.45
54736;BME280;40632;51.442;11.936;2022-10-16T03:42:11;100167.50;;;21.86;63.91
54736;BME280;40632;51.442;11.936;2022-10-16T03:44:36;100164.09;;;21.93;64.10
54736;BME280;40632;51.442;11.936;2022-10-16T03:47:02;100161.22;;;21.94;63.77
54736;BME280;40632;51.442;11.936;2022-10-16T03:49:27;100157.34;;;21.67;65.10
54736;BME280;40632;51.442;11.936;2022-10-16T03:51:53;100162.63;;;21.90;63.99
54736;BME280;40632;51.442;11.936;2022-10-16T03:54:18;100174.34;;;22.04;63.98
54736;BME280;40632;51.442;11.936;2022-10-16T03:56:44;100178.38;;;22.00;63.73
54736;BME280;40632;51.442;11.936;2022-10-16T03:59:12;100171.75;;;22.11;63.83
54736;BME280;40632;51.442;11.936;2022-10-16T04:01:38;100166.88;;;22.14;63.57
54736;BME280;40632;51.442;11.936;2022-10-16T04:04:03;100162.22;;;22.23;63.52
54736;BME280;40632;51.442;11.936;2022-10-16T04:06:29;100155.41;;;22.20;63.39
54736;BME280;40632;51.442;11.936;2022-10-16T04:08:54;100170.00;;;22.18;63.40
54736;BME280;40632;51.442;11.936;2022-10-16T04:11:20;100191.66;;;22.23;63.21
54736;BME280;40632;51.442;11.936;2022-10-16T04:13:45;100196.81;;;22.09;63.66
54736;BME280;40632;51.442;11.936;2022-10-16T04:16:14;100197.09;;;22.15;63.05
54736;BME280;40632;51.442;11.936;2022-10-16T04:18:39;100193.31;;;22.24;62.96
54736;BME280;40632;51.442;11.936;2022-10-16T04:21:05;100188.63;;;22.11;63.15
54736;BME280;40632;51.442;11.936;2022-10-16T04:23:31;100198.22;;;22.05;63.24
54736;BME280;40632;51.442;11.936;2022-10-16T04:25:57;100208.53;;;22.23;62.97
54736;BME280;40632;51.442;11.936;2022-10-16T04:28:23;100206.97;;;22.14;63.00
54736;BME280;40632;51.442;11.936;2022-10-16T04:30:48;100207.69;;;22.08;63.26
54736;BME280;40632;51.442;11.936;2022-10-16T04:33:16;100209.56;;;22.07;62.65
54736;BME280;40632;51.442;11.936;2022-10-16T04:35:42;100214.25;;;22.05;62.76
54736;BME280;40632;51.442;11.936;2022-10-16T04:38:07;100204.28;;;21.99;62.54
54736;BME280;40632;51.442;11.936;2022-10-16T04:40:33;100221.06;;;21.93;63.01
54736;BME280;40632;51.442;11.936;2022-10-16T04:42:59;100228.41;;;21.76;63.46
54736;BME280;40632;51.442;11.936;2022-10-16T04:45:24;100237.75;;;21.80;63.54
54736;BME280;40632;51.442;11.936;2022-10-16T04:47:50;100235.88;;;21.66;64.23
54736;BME280;40632;51.442;11.936;2022-10-16T04:50:18;100239.47;;;21.73;64.11
54736;BME280;40632;51.442;11.936;2022-10-16T04:52:44;100238.91;;;21.78;63.78
54736;BME280;40632;51.442;11.936;2022-10-16T04:55:09;100239.56;;;21.80;63.84
54736;BME280;40632;51.442;11.936;2022-10-16T04:57:35;100237.06;;;21.78;63.43
54736;BME280;40632;51.442;11.936;2022-10-16T05:00:00;100229.91;;;21.79;63.88
54736;BME280;40632;51.442;11.936;2022-10-16T05:02:26;100244.97;;;21.95;63.39
54736;BME280;40632;51.442;11.936;2022-10-16T05:04:52;100245.84;;;21.87;63.18
54736;BME280;40632;51.442;11.936;2022-10-16T05:07:20;100251.84;;;21.89;63.20
54736;BME280;40632;51.442;11.936;2022-10-16T05:09:45;100249.63;;;21.93;62.91
54736;BME280;40632;51.442;11.936;2022-10-16T05:12:11;100248.91;;;21.84;63.45
54736;BME280;40632;51.442;11.936;2022-10-16T05:14:36;100255.06;;;21.69;63.86
54736;BME280;40632;51.442;11.936;2022-10-16T05:17:02;100249.63;;;21.78;63.66
54736;BME280;40632;51.442;11.936;2022-10-16T05:19:28;100240.78;;;21.92;62.97
54736;BME280;40632;51.442;11.936;2022-10-16T05:21:53;100242.19;;;21.88;63.01
54736;BME280;40632;51.442;11.936;2022-10-16T05:24:22;100245.19;;;21.85;63.45
54736;BME280;40632;51.442;11.936;2022-10-16T05:26:47;100242.53;;;21.85;63.06
54736;BME280;40632;51.442;11.936;2022-10-16T05:29:13;100235.13;;;21.72;63.39
54736;BME280;40632;51.442;11.936;2022-10-16T05:31:39;100245.94;;;21.79;63.23
54736;BME280;40632;51.442;11.936;2022-10-16T05:34:04;100253.53;;;21.52;63.34
54736;BME280;40632;51.442;11.936;2022-10-16T05:36:30;100262.34;;;21.52;63.88
54736;BME280;40632;51.442;11.936;2022-10-16T05:38:55;100260.44;;;21.61;63.54
54736;BME280;40632;51.442;11.936;2022-10-16T05:41:24;100262.47;;;21.59;63.27
54736;BME280;40632;51.442;11.936;2022-10-16T05:43:49;100263.59;;;21.65;63.04
54736;BME280;40632;51.442;11.936;2022-10-16T05:46:15;100261.59;;;21.82;62.43
54736;BME280;40632;51.442;11.936;2022-10-16T05:48:41;100268.72;;;21.89;62.66
54736;BME280;40632;51.442;11.936;2022-10-16T05:51:09;100265.81;;;21.76;62.49
54736;BME280;40632;51.442;11.936;2022-10-16T05:53:36;100263.16;;;21.76;62.81
54736;BME280;40632;51.442;11.936;2022-10-16T05:56:02;100277.16;;;21.78;62.65
54736;BME280;40632;51.442;11.936;2022-10-16T05:58:32;100282.81;;;21.83;62.70
54736;BME280;40632;51.442;11.936;2022-10-16T06:00:59;100277.06;;;21.72;62.84
54736;BME280;40632;51.442;11.936;2022-10-16T06:03:25;100272.56;;;21.87;62.50
54736;BME280;40632;51.442;11.936;2022-10-16T06:05:51;100273.34;;;21.96;62.29
54736;BME280;40632;51.442;11.936;2022-10-16T06:08:18;100267.53;;;22.07;62.13
54736;BME280;40632;51.442;11.936;2022-10-16T06:10:44;100268.38;;;22.07;61.71
54736;BME280;40632;51.442;11.936;2022-10-16T06:13:09;100281.28;;;22.04;62.02
54736;BME280;40632;51.442;11.936;2022-10-16T06:15:38;100286.69;;;21.96;61.93
54736;BME280;40632;51.442;11.936;2022-10-16T06:18:03;100290.34;;;22.18;61.58
54736;BME280;40632;51.442;11.936;2022-10-16T06:20:29;100294.34;;;22.37;61.12
54736;BME280;40632;51.442;11.936;2022-10-16T06:22:54;100290.72;;;22.44;60.60
54736;BME280;40632;51.442;11.936;2022-10-16T06:25:20;100300.34;;;22.39;61.17
54736;BME280;40632;51.442;11.936;2022-10-16T06:27:46;100298.69;;;22.38;61.28
54736;BME280;40632;51.442;11.936;2022-10-16T06:30:11;100307.53;;;22.53;61.01
54736;BME280;40632;51.442;11.936;2022-10-16T06:32:39;100302.81;;;22.55;60.61
54736;BME280;40632;51.442;11.936;2022-10-16T06:35:05;100305.31;;;22.57;60.77
54736;BME280;40632;51.442;11.936;2022-10-16T06:37:31;100301.63;;;22.73;60.42
54736;BME280;40632;51.442;11.936;2022-10-16T06:39:57;100295.63;;;22.71;60.08
54736;BME280;40632;51.442;11.936;2022-10-16T06:42:22;100300.59;;;22.74;60.59
54736;BME280;40632;51.442;11.936;2022-10-16T06:44:48;100302.06;;;22.91;59.69
54736;BME280;40632;51.442;11.936;2022-10-16T06:47:13;100301.41;;;22.89;59.55
54736;BME280;40632;51.442;11.936;2022-10-16T06:49:41;100284.59;;;23.10;59.69
54736;BME280;40632;51.442;11.936;2022-10-16T06:52:07;100282.94;;;22.94;59.74
54736;BME280;40632;51.442;11.936;2022-10-16T06:54:33;100266.69;;;22.96;59.96
54736;BME280;40632;51.442;11.936;2022-10-16T06:56:58;100273.53;;;22.98;60.58
54736;BME280;40632;51.442;11.936;2022-10-16T06:59:24;100259.41;;;23.05;60.27
54736;BME280;40632;51.442;11.936;2022-10-16T07:01:52;100266.09;;;23.15;60.07
54736;BME280;40632;51.442;11.936;2022-10-16T07:04:18;100268.78;;;23.15;60.40
54736;BME280;40632;51.442;11.936;2022-10-16T07:06:46;100281.88;;;23.68;59.35
54736;BME280;40632;51.442;11.936;2022-10-16T07:09:12;100291.31;;;24.14;58.00
54736;BME280;40632;51.442;11.936;2022-10-16T07:11:38;100302.34;;;23.97;58.81
54736;BME280;40632;51.442;11.936;2022-10-16T07:14:05;100310.13;;;24.21;58.36
54736;BME280;40632;51.442;11.936;2022-10-16T07:16:34;100323.44;;;24.35;57.87
54736;BME280;40632;51.442;11.936;2022-10-16T07:19:01;100332.41;;;23.93;58.43
54736;BME280;40632;51.442;11.936;2022-10-16T07:21:29;100342.94;;;23.51;59.21
54736;BME280;40632;51.442;11.936;2022-10-16T07:23:59;100340.84;;;23.90;59.24
54736;BME280;40632;51.442;11.936;2022-10-16T07:26:26;100346.00;;;23.70;59.21
54736;BME280;40632;51.442;11.936;2022-10-16T07:28:52;100343.44;;;24.05;58.74
54736;BME280;40632;51.442;11.936;2022-10-16T07:31:19;100340.06;;;23.53;59.84
54736;BME280;40632;51.442;11.936;2022-10-16T07:33:46;100344.00;;;24.22;58.55
54736;BME280;40632;51.442;11.936;2022-10-16T07:36:12;100356.31;;;24.44;58.30
54736;BME280;40632;51.442;11.936;2022-10-16T07:38:37;100358.47;;;23.99;58.86
54736;BME280;40632;51.442;11.936;2022-10-16T07:41:07;100376.97;;;24.15;58.93
54736;BME280;40632;51.442;11.936;2022-10-16T07:43:34;100379.97;;;24.90;56.83
54736;BME280;40632;51.442;11.936;2022-10-16T07:46:00;100381.09;;;25.09;56.38
54736;BME280;40632;51.442;11.936;2022-10-16T07:48:27;100381.50;;;25.13;56.33
54736;BME280;40632;51.442;11.936;2022-10-16T07:50:57;100389.72;;;25.53;55.50
54736;BME280;40632;51.442;11.936;2022-10-16T07:53:22;100382.25;;;25.48;55.48
54736;BME280;40632;51.442;11.936;2022-10-16T07:55:48;100380.72;;;25.94;54.58
54736;BME280;40632;51.442;11.936;2022-10-16T07:58:16;100388.59;;;26.29;54.08
54736;BME280;40632;51.442;11.936;2022-10-16T08:00:41;100388.78;;;26.41;53.81
54736;BME280;40632;51.442;11.936;2022-10-16T08:03:08;100382.75;;;25.92;54.77
54736;BME280;40632;51.442;11.936;2022-10-16T08:05:34;100380.84;;;25.59;55.86
54736;BME280;40632;51.442;11.936;2022-10-16T08:08:00;100379.06;;;26.00;54.93
54736;BME280;40632;51.442;11.936;2022-10-16T08:10:27;100390.16;;;25.70;55.46
54736;BME280;40632;51.442;11.936;2022-10-16T08:12:53;100402.56;;;25.64;55.69
54736;BME280;40632;51.442;11.936;2022-10-16T08:15:21;100405.84;;;25.05;57.17
54736;BME280;40632;51.442;11.936;2022-10-16T08:17:54;100406.59;;;25.95;55.22
54736;BME280;40632;51.442;11.936;2022-10-16T08:20:20;100418.81;;;26.24;54.53
54736;BME280;40632;51.442;11.936;2022-10-16T08:22:45;100433.09;;;25.98;54.99
54736;BME280;40632;51.442;11.936;2022-10-16T08:25:11;100441.72;;;25.80;55.41
54736;BME280;40632;51.442;11.936;2022-10-16T08:27:36;100440.44;;;25.69;55.50
54736;BME280;40632;51.442;11.936;2022-10-16T08:30:03;100441.25;;;25.70;55.03
54736;BME280;40632;51.442;11.936;2022-10-16T08:32:31;100429.78;;;25.96;54.96
54736;BME280;40632;51.442;11.936;2022-10-16T08:34:57;100424.84;;;26.33;53.64
54736;BME280;40632;51.442;11.936;2022-10-16T08:37:22;100426.56;;;25.59;55.42
54736;BME280;40632;51.442;11.936;2022-10-16T08:39:48;100429.38;;;25.38;55.07
54736;BME280;40632;51.442;11.936;2022-10-16T08:42:28;100432.19;;;25.78;54.61
54736;BME280;40632;51.442;11.936;2022-10-16T08:45:26;100437.78;;;25.90;54.80
54736;BME280;40632;51.442;11.936;2022-10-16T08:48:04;100445.72;;;26.44;53.57
54736;BME280;40632;51.442;11.936;2022-10-16T08:50:37;100446.03;;;25.75;54.92
54736;BME280;40632;51.442;11.936;2022-10-16T08:53:04;100444.19;;;25.68;54.66
54736;BME280;40632;51.442;11.936;2022-10-16T08:55:33;100436.63;;;26.19;54.36
54736;BME280;40632;51.442;11.936;2022-10-16T08:58:10;100444.09;;;26.17;53.83
54736;BME280;40632;51.442;11.936;2022-10-16T09:00:38;100449.66;;;26.22;53.77
54736;BME280;40632;51.442;11.936;2022-10-16T09:03:14;100445.13;;;26.42;53.65
54736;BME280;40632;51.442;11.936;2022-10-16T09:05:54;100449.88;;;26.54;53.29
54736;BME280;40632;51.442;11.936;2022-10-16T09:08:27;100447.94;;;27.66;51.17
54736;BME280;40632;51.442;11.936;2022-10-16T09:10:57;100449.28;;;26.65;52.96
54736;BME280;40632;51.442;11.936;2022-10-16T09:13:27;100450.81;;;27.13;52.11
54736;BME280;40632;51.442;11.936;2022-10-16T09:16:01;100453.78;;;26.91;52.37
54736;BME280;40632;51.442;11.936;2022-10-16T09:18:39;100462.28;;;26.41;52.99
54736;BME280;40632;51.442;11.936;2022-10-16T09:21:13;100467.06;;;26.53;52.60
54736;BME280;40632;51.442;11.936;2022-10-16T09:23:40;100468.63;;;25.87;53.83
54736;BME280;40632;51.442;11.936;2022-10-16T09:26:10;100476.88;;;25.72;53.69
54736;BME280;40632;51.442;11.936;2022-10-16T09:28:36;100467.72;;;26.61;51.87
54736;BME280;40632;51.442;11.936;2022-10-16T09:31:02;100468.31;;;26.43;52.80
54736;BME280;40632;51.442;11.936;2022-10-16T09:33:30;100478.03;;;26.18;53.42
54736;BME280;40632;51.442;11.936;2022-10-16T09:36:03;100476.16;;;26.18;52.83
54736;BME280;40632;51.442;11.936;2022-10-16T09:38:31;100475.78;;;26.75;52.34
54736;BME280;40632;51.442;11.936;2022-10-16T09:40:58;100478.03;;;26.18;53.17
54736;BME280;40632;51.442;11.936;2022-10-16T09:43:27;100482.13;;;27.14;50.97
54736;BME280;40632;51.442;11.936;2022-10-16T09:45:57;100486.13;;;26.58;52.07
54736;BME280;40632;51.442;11.936;2022-10-16T09:48:22;100480.47;;;27.19;51.06
54736;BME280;40632;51.442;11.936;2022-10-16T09:50:57;100472.69;;;26.65;51.33
54736;BME280;40632;51.442;11.936;2022-10-16T09:53:26;100470.56;;;26.20;52.42
54736;BME280;40632;51.442;11.936;2022-10-16T09:56:01;100472.84;;;26.90;51.40
54736;BME280;40632;51.442;11.936;2022-10-16T09:58:27;100481.34;;;26.93;51.28
54736;BME280;40632;51.442;11.936;2022-10-16T10:00:53;100494.59;;;27.01;51.00
54736;BME280;40632;51.442;11.936;2022-10-16T10:03:33;100502.59;;;27.42;50.52
54736;BME280;40632;51.442;11.936;2022-10-16T10:05:59;100506.22;;;26.75;51.51
54736;BME280;40632;51.442;11.936;2022-10-16T10:08:28;100510.19;;;27.65;49.73
54736;BME280;40632;51.442;11.936;2022-10-16T10:10:54;100512.06;;;27.64;50.25
54736;BME280;40632;51.442;11.936;2022-10-16T10:13:21;100510.63;;;27.62;50.03
54736;BME280;40632;51.442;11.936;2022-10-16T10:15:48;100518.16;;;28.30;49.39
54736;BME280;40632;51.442;11.936;2022-10-16T10:18:18;100512.03;;;27.71;49.89
54736;BME280;40632;51.442;11.936;2022-10-16T10:20:44;100499.66;;;27.56;49.88
54736;BME280;40632;51.442;11.936;2022-10-16T10:23:21;100496.72;;;28.10;49.51
54736;BME280;40632;51.442;11.936;2022-10-16T10:25:55;100505.47;;;27.53;50.08
54736;BME280;40632;51.442;11.936;2022-10-16T10:28:49;100512.75;;;28.30;48.54
54736;BME280;40632;51.442;11.936;2022-10-16T10:31:21;100506.38;;;28.24;48.91
54736;BME280;40632;51.442;11.936;2022-10-16T10:33:52;100519.69;;;27.74;49.71
54736;BME280;40632;51.442;11.936;2022-10-16T10:36:27;100520.34;;;27.69;50.02
54736;BME280;40632;51.442;11.936;2022-10-16T10:38:58;100523.94;;;27.50;50.03
54736;BME280;40632;51.442;11.936;2022-10-16T10:41:52;100531.28;;;27.16;50.79
54736;BME280;40632;51.442;11.936;2022-10-16T10:44:32;100519.69;;;27.74;50.42
54736;BME280;40632;51.442;11.936;2022-10-16T10:47:25;100529.22;;;27.83;49.37
54736;BME280;40632;51.442;11.936;2022-10-16T10:50:00;100524.63;;;27.18;50.63
54736;BME280;40632;51.442;11.936;2022-10-16T10:52:45;100527.34;;;27.77;49.58
54736;BME280;40632;51.442;11.936;2022-10-16T10:55:21;100531.16;;;28.40;48.64
54736;BME280;40632;51.442;11.936;2022-10-16T10:58:04;100535.53;;;28.41;48.40
54736;BME280;40632;51.442;11.936;2022-10-16T11:00:44;100530.13;;;28.41;48.47
54736;BME280;40632;51.442;11.936;2022-10-16T11:03:26;100527.16;;;27.72;49.38
54736;BME280;40632;51.442;11.936;2022-10-16T11:05:56;100528.03;;;27.66;50.29
54736;BME280;40632;51.442;11.936;2022-10-16T11:08:28;100524.34;;;27.60;50.23
54736;BME280;40632;51.442;11.936;2022-10-16T11:10:58;100521.22;;;27.56;50.19
54736;BME280;40632;51.442;11.936;2022-10-16T11:13:32;100521.41;;;27.62;50.24
54736;BME280;40632;51.442;11.936;2022-10-16T11:16:03;100530.63;;;27.41;50.84
54736;BME280;40632;51.442;11.936;2022-10-16T11:18:42;100539.91;;;27.58;50.50
54736;BME280;40632;51.442;11.936;2022-10-16T11:21:13;100549.69;;;27.39;50.64
54736;BME280;40632;51.442;11.936;2022-10-16T11:23:43;100546.91;;;27.66;49.83
54736;BME280;40632;51.442;11.936;2022-10-16T11:26:19;100550.75;;;27.25;50.87
54736;BME280;40632;51.442;11.936;2022-10-16T11:28:51;100542.50;;;27.06;50.80
54736;BME280;40632;51.442;11.936;2022-10-16T11:31:21;100543.22;;;27.60;50.02
54736;BME280;40632;51.442;11.936;2022-10-16T11:33:54;100546.41;;;27.10;50.50
54736;BME280;40632;51.442;11.936;2022-10-16T11:36:27;100550.56;;;27.91;49.53
54736;BME280;40632;51.442;11.936;2022-10-16T11:39:02;100550.16;;;27.94;49.26
54736;BME280;40632;51.442;11.936;2022-10-16T11:41:29;100554.22;;;27.52;50.12
54736;BME280;40632;51.442;11.936;2022-10-16T11:44:13;100553.28;;;26.86;51.25
54736;BME280;40632;51.442;11.936;2022-10-16T11:46:50;100560.09;;;26.75;52.21
54736;BME280;40632;51.442;11.936;2022-10-16T11:49:19;100555.31;;;27.24;51.43
54736;BME280;40632;51.442;11.936;2022-10-16T11:51:51;100557.47;;;26.00;52.86
54736;BME280;40632;51.442;11.936;2022-10-16T11:54:28;100550.75;;;27.25;51.00
54736;BME280;40632;51.442;11.936;2022-10-16T11:57:01;100554.31;;;26.78;52.12
54736;BME280;40632;51.442;11.936;2022-10-16T11:59:36;100561.75;;;26.96;51.39
54736;BME280;40632;51.442;11.936;2022-10-16T12:02:23;100555.09;;;27.32;50.80
54736;BME280;40632;51.442;11.936;2022-10-16T12:04:58;100557.25;;;27.75;49.31
54736;BME280;40632;51.442;11.936;2022-10-16T12:07:32;100568.41;;;27.86;49.88
54736;BME280;40632;51.442;11.936;2022-10-16T12:10:09;100569.53;;;27.65;49.61
54736;BME280;40632;51.442;11.936;2022-10-16T12:12:39;100558.63;;;27.13;50.34
54736;BME280;40632;51.442;11.936;2022-10-16T12:15:20;100562.84;;;27.74;49.82
54736;BME280;40632;51.442;11.936;2022-10-16T12:17:47;100566.19;;;28.21;48.60
54736;BME280;40632;51.442;11.936;2022-10-16T12:20:23;100564.31;;;28.22;48.54
54736;BME280;40632;51.442;11.936;2022-10-16T12:22:50;100565.47;;;28.01;48.78
54736;BME280;40632;51.442;11.936;2022-10-16T12:25:22;100564.63;;;28.07;48.94
54736;BME280;40632;51.442;11.936;2022-10-16T12:27:55;100567.34;;;28.39;48.76
54736;BME280;40632;51.442;11.936;2022-10-16T12:30:26;100563.78;;;28.38;48.41
54736;BME280;40632;51.442;11.936;2022-10-16T12:32:53;100562.75;;;28.01;48.48
54736;BME280;40632;51.442;11.936;2022-10-16T12:35:22;100556.53;;;28.00;48.83
54736;BME280;40632;51.442;11.936;2022-10-16T12:37:48;100556.13;;;27.38;49.69
54736;BME280;40632;51.442;11.936;2022-10-16T12:40:23;100547.03;;;27.12;50.01
54736;BME280;40632;51.442;11.936;2022-10-16T12:42:50;100554.09;;;27.07;49.97
54736;BME280;40632;51.442;11.936;2022-10-16T12:45:30;100562.38;;;26.72;50.60
54736;BME280;40632;51.442;11.936;2022-10-16T12:47:57;100558.38;;;27.54;49.12
54736;BME280;40632;51.442;11.936;2022-10-16T12:50:32;100564.25;;;26.71;49.49